Time;durP1;ratioP1;P1;durP2;ratioP2;P2;SDS_P1;SDS_P2;PMS_P1;PMS_P2;Temp;Humidity;BMP_temperature;BMP_pressure;BME280_temperature;BME280_humidity;BME280_pressure;Samples;Min_cycle;Max_cycle;Signal;HPM_P1;HPM_P2
2021/01/26 00:01:34;;;;;;;10.67;7.03;;;;;;;;;;5015294;28;20407;-76
2021/01/26 00:04:00;;;;;;;10.60;7.20;;;;;;;;;;5025645;28;20427;-75
2021/01/26 00:06:26;;;;;;;9.80;6.40;;;;;;;;;;5015235;28;20559;-75
2021/01/26 00:08:52;;;;;;;10.10;6.87;;;;;;;;;;5014807;28;20429;-75
2021/01/26 00:11:18;;;;;;;10.10;6.03;;;;;;;;;;5014537;28;20450;-75
2021/01/26 00:13:44;;;;;;;9.80;6.70;;;;;;;;;;5028697;28;20417;-75
2021/01/26 00:16:10;;;;;;;7.67;5.80;;;;;;;;;;5034463;28;20830;-76
2021/01/26 00:18:36;;;;;;;12.67;6.67;;;;;;;;;;5033679;28;20484;-75
2021/01/26 00:21:02;;;;;;;12.87;7.20;;;;;;;;;;5034794;28;20417;-76
2021/01/26 00:23:28;;;;;;;12.00;7.40;;;;;;;;;;5033886;28;20843;-75
2021/01/26 00:25:54;;;;;;;11.97;6.60;;;;;;;;;;5034526;28;21046;-76
2021/01/26 00:28:20;;;;;;;9.40;6.37;;;;;;;;;;5033565;28;20444;-75
2021/01/26 00:30:46;;;;;;;10.87;7.43;;;;;;;;;;5034201;28;20411;-75
2021/01/26 00:33:19;;;;;;;7.40;5.33;;;;;;;;;;5033768;28;20893;-75
2021/01/26 00:35:45;;;;;;;9.63;6.30;;;;;;;;;;5034138;28;20430;-76
2021/01/26 00:38:12;;;;;;;12.00;6.77;;;;;;;;;;5025045;28;20511;-75
2021/01/26 00:40:38;;;;;;;11.00;6.40;;;;;;;;;;5014218;28;20398;-75
2021/01/26 00:43:05;;;;;;;11.67;7.10;;;;;;;;;;5021375;28;20429;-75
2021/01/26 00:45:31;;;;;;;13.47;8.47;;;;;;;;;;5033943;28;20535;-75
2021/01/26 00:47:57;;;;;;;8.67;6.50;;;;;;;;;;5027321;28;20469;-75
2021/01/26 00:50:23;;;;;;;10.07;7.30;;;;;;;;;;5014202;28;20437;-75
2021/01/26 00:52:50;;;;;;;10.67;7.60;;;;;;;;;;5018658;28;20506;-75
2021/01/26 00:55:18;;;;;;;11.87;6.90;;;;;;;;;;5033680;28;20424;-75
2021/01/26 00:57:44;;;;;;;11.43;6.67;;;;;;;;;;5032756;28;20892;-75
2021/01/26 01:00:14;;;;;;;12.10;7.60;;;;;;;;;;5033638;28;20448;-75
2021/01/26 01:02:39;;;;;;;10.13;7.37;;;;;;;;;;5029226;28;20938;-75
2021/01/26 01:05:07;;;;;;;13.97;6.93;;;;;;;;;;5032936;28;20462;-75
2021/01/26 01:07:33;;;;;;;9.13;6.27;;;;;;;;;;5031269;28;20776;-75
2021/01/26 01:09:59;;;;;;;12.67;6.83;;;;;;;;;;5013857;28;20461;-76
2021/01/26 01:12:25;;;;;;;8.63;5.90;;;;;;;;;;5014076;28;20470;-75
2021/01/26 01:14:51;;;;;;;9.00;6.50;;;;;;;;;;5033558;28;20402;-75
2021/01/26 01:17:17;;;;;;;8.03;6.30;;;;;;;;;;5033561;28;20412;-76
2021/01/26 01:19:43;;;;;;;10.80;6.77;;;;;;;;;;5033395;28;20423;-76
2021/01/26 01:22:09;;;;;;;12.40;7.17;;;;;;;;;;5032744;28;20495;-76
2021/01/26 01:24:35;;;;;;;8.03;6.00;;;;;;;;;;5032677;28;20425;-75
2021/01/26 01:27:01;;;;;;;9.80;6.83;;;;;;;;;;5033478;28;20442;-76
2021/01/26 01:29:31;;;;;;;7.37;5.13;;;;;;;;;;5032483;28;20569;-75
2021/01/26 01:31:57;;;;;;;7.90;6.03;;;;;;;;;;5033377;28;20569;-76
2021/01/26 01:34:23;;;;;;;8.80;6.70;;;;;;;;;;5027947;28;20515;-75
2021/01/26 01:36:49;;;;;;;10.27;7.10;;;;;;;;;;5013511;28;20516;-75
2021/01/26 01:39:15;;;;;;;8.60;6.70;;;;;;;;;;5027188;28;20472;-75
2021/01/26 01:41:41;;;;;;;9.40;6.17;;;;;;;;;;5031883;28;20436;-75
2021/01/26 01:44:07;;;;;;;11.50;7.60;;;;;;;;;;5031266;28;20492;-76
2021/01/26 01:46:39;;;;;;;12.27;7.37;;;;;;;;;;5030538;28;20466;-75
2021/01/26 01:49:06;;;;;;;8.67;6.60;;;;;;;;;;5032696;28;20940;-76
2021/01/26 01:51:35;;;;;;;13.70;7.30;;;;;;;;;;5031355;28;20457;-76
2021/01/26 01:54:05;;;;;;;10.73;7.40;;;;;;;;;;5033115;28;20458;-75
2021/01/26 01:56:34;;;;;;;9.33;6.80;;;;;;;;;;5032105;28;20421;-75
2021/01/26 01:59:03;;;;;;;13.87;7.20;;;;;;;;;;5033123;28;20454;-76
2021/01/26 02:01:30;;;;;;;8.17;5.77;;;;;;;;;;5031337;28;20406;-76
2021/01/26 02:03:59;;;;;;;11.20;7.50;;;;;;;;;;5013544;28;20415;-76
2021/01/26 02:06:28;;;;;;;12.30;7.00;;;;;;;;;;5013380;28;20431;-75
2021/01/26 02:08:57;;;;;;;14.77;7.17;;;;;;;;;;5013039;28;20434;-76
2021/01/26 02:11:23;;;;;;;11.90;7.73;;;;;;;;;;5013143;28;20508;-76
2021/01/26 02:13:50;;;;;;;9.80;7.10;;;;;;;;;;5028816;28;20422;-75
2021/01/26 02:16:31;;;;;;;10.40;7.23;;;;;;;;;;5032682;28;20430;-75
2021/01/26 02:19:12;;;;;;;11.80;7.37;;;;;;;;;;5031625;28;20957;-75
2021/01/26 02:21:41;;;;;;;11.57;6.77;;;;;;;;;;5031387;28;20466;-75
2021/01/26 02:24:23;;;;;;;11.53;7.73;;;;;;;;;;5030870;28;20463;-76
2021/01/26 02:26:55;;;;;;;9.00;7.37;;;;;;;;;;5032414;28;20477;-76
2021/01/26 02:29:47;;;;;;;10.20;7.33;;;;;;;;;;5032028;28;20990;-76
2021/01/26 02:32:22;;;;;;;10.70;6.97;;;;;;;;;;5017395;28;20465;-76
2021/01/26 02:34:54;;;;;;;11.03;7.83;;;;;;;;;;5035659;28;20432;-77
2021/01/26 02:37:26;;;;;;;10.53;6.87;;;;;;;;;;5036478;28;20408;-76
2021/01/26 02:40:03;;;;;;;13.10;7.90;;;;;;;;;;5017896;28;20441;-76
2021/01/26 02:42:48;;;;;;;13.13;7.90;;;;;;;;;;5016496;28;20407;-76
2021/01/26 02:45:24;;;;;;;12.17;8.23;;;;;;;;;;5016509;28;20589;-75
2021/01/26 02:48:01;;;;;;;9.27;7.30;;;;;;;;;;5016510;28;20398;-76
2021/01/26 02:50:46;;;;;;;9.87;7.23;;;;;;;;;;5016522;28;20418;-75
2021/01/26 02:53:21;;;;;;;12.20;7.73;;;;;;;;;;5020187;28;20444;-76
2021/01/26 02:55:53;;;;;;;9.03;7.13;;;;;;;;;;5036270;28;20421;-75
2021/01/26 02:58:31;;;;;;;9.87;6.57;;;;;;;;;;5035298;28;20419;-75
2021/01/26 03:00:59;;;;;;;10.97;7.47;;;;;;;;;;5034395;28;20409;-75
2021/01/26 03:03:54;;;;;;;9.20;7.20;;;;;;;;;;5034883;28;20507;-76
2021/01/26 03:06:25;;;;;;;9.50;7.00;;;;;;;;;;5027712;28;20465;-76
2021/01/26 03:09:13;;;;;;;12.13;7.50;;;;;;;;;;5033723;28;20422;-76
2021/01/26 03:12:05;;;;;;;9.50;6.27;;;;;;;;;;5035605;28;20495;-76
2021/01/26 03:14:34;;;;;;;10.87;7.47;;;;;;;;;;5018004;28;20499;-76
2021/01/26 03:17:14;;;;;;;8.80;6.40;;;;;;;;;;5035569;28;20505;-76
2021/01/26 03:19:44;;;;;;;9.90;6.60;;;;;;;;;;5020072;28;20444;-75
2021/01/26 03:22:11;;;;;;;12.40;6.50;;;;;;;;;;5015738;28;20417;-75
2021/01/26 03:24:39;;;;;;;9.27;6.23;;;;;;;;;;5030030;28;20425;-76
2021/01/26 03:27:07;;;;;;;11.50;6.83;;;;;;;;;;5035247;28;20448;-75
2021/01/26 03:29:35;;;;;;;10.67;7.43;;;;;;;;;;5034580;28;20426;-75
2021/01/26 03:32:03;;;;;;;13.00;8.50;;;;;;;;;;5033307;28;20455;-76
2021/01/26 03:34:29;;;;;;;11.07;7.50;;;;;;;;;;5033257;28;20453;-75
2021/01/26 03:36:56;;;;;;;14.63;7.33;;;;;;;;;;5035379;28;20423;-76
2021/01/26 03:39:22;;;;;;;10.60;7.53;;;;;;;;;;5022855;28;20449;-76
2021/01/26 03:41:48;;;;;;;11.60;6.53;;;;;;;;;;5015531;28;20435;-76
2021/01/26 03:44:14;;;;;;;11.43;7.53;;;;;;;;;;5024639;28;20946;-75
2021/01/26 03:46:45;;;;;;;9.73;7.17;;;;;;;;;;5032415;28;20463;-76
2021/01/26 03:49:21;;;;;;;12.43;8.40;;;;;;;;;;5024781;28;20428;-75
2021/01/26 03:51:50;;;;;;;12.80;8.40;;;;;;;;;;5035186;28;20457;-75
2021/01/26 03:54:22;;;;;;;15.10;8.90;;;;;;;;;;5024309;28;20436;-75
2021/01/26 03:56:57;;;;;;;13.13;8.47;;;;;;;;;;5015214;28;20423;-75
2021/01/26 03:59:32;;;;;;;13.17;8.17;;;;;;;;;;5026080;28;20445;-76
2021/01/26 04:02:03;;;;;;;16.70;8.17;;;;;;;;;;5034910;28;20395;-75
2021/01/26 04:04:34;;;;;;;13.83;8.83;;;;;;;;;;5033765;28;20927;-75
2021/01/26 04:07:02;;;;;;;13.20;8.90;;;;;;;;;;5033290;28;20483;-75
2021/01/26 04:09:34;;;;;;;15.07;8.80;;;;;;;;;;5033994;28;20652;-76
2021/01/26 04:12:11;;;;;;;14.20;8.20;;;;;;;;;;5034807;28;20448;-75
2021/01/26 04:14:48;;;;;;;10.17;7.30;;;;;;;;;;5022152;28;20431;-75
2021/01/26 04:17:14;;;;;;;13.63;8.37;;;;;;;;;;5013594;28;20415;-75
2021/01/26 04:19:44;;;;;;;10.87;7.77;;;;;;;;;;5025683;28;20432;-75
2021/01/26 04:22:12;;;;;;;12.90;7.70;;;;;;;;;;5029577;28;20425;-75
2021/01/26 04:24:38;;;;;;;12.17;7.27;;;;;;;;;;5033735;28;20501;-76
2021/01/26 04:27:06;;;;;;;25.23;9.50;;;;;;;;;;5034253;28;20487;-75
2021/01/26 04:29:33;;;;;;;12.53;8.60;;;;;;;;;;5022654;28;20431;-74
2021/01/26 04:31:59;;;;;;;13.40;9.50;;;;;;;;;;5014454;28;20457;-74
2021/01/26 04:34:25;;;;;;;14.47;9.80;;;;;;;;;;5024178;28;20430;-76
2021/01/26 04:36:51;;;;;;;15.23;9.53;;;;;;;;;;5034341;28;20421;-75
2021/01/26 04:39:17;;;;;;;17.73;8.03;;;;;;;;;;5033420;28;20421;-75
2021/01/26 04:42:13;;;;;;;18.13;9.90;;;;;;;;;;5034078;28;20535;-75
2021/01/26 04:44:41;;;;;;;11.53;7.57;;;;;;;;;;5023239;28;20448;-74
2021/01/26 04:47:07;;;;;;;12.50;8.60;;;;;;;;;;5033679;28;20425;-74
2021/01/26 04:49:37;;;;;;;15.73;8.40;;;;;;;;;;5023098;28;20488;-75
2021/01/26 04:52:06;;;;;;;14.87;9.30;;;;;;;;;;5014367;28;20457;-75
2021/01/26 04:54:38;;;;;;;13.77;9.57;;;;;;;;;;5023491;28;20429;-74
2021/01/26 04:57:13;;;;;;;11.83;7.70;;;;;;;;;;5033946;28;20492;-75
2021/01/26 04:59:39;;;;;;;11.10;7.60;;;;;;;;;;5023082;28;20435;-75
2021/01/26 05:02:05;;;;;;;14.97;7.93;;;;;;;;;;5013976;28;20411;-74
2021/01/26 05:04:31;;;;;;;10.87;7.20;;;;;;;;;;5023159;28;20434;-75
2021/01/26 05:07:17;;;;;;;11.20;6.60;;;;;;;;;;5033600;28;20435;-75
2021/01/26 05:10:02;;;;;;;10.83;6.60;;;;;;;;;;5022334;28;20438;-75
2021/01/26 05:12:28;;;;;;;9.03;5.77;;;;;;;;;;5013753;28;20457;-75
2021/01/26 05:14:59;;;;;;;15.07;7.90;;;;;;;;;;5025584;28;20466;-75
2021/01/26 05:17:32;;;;;;;10.70;5.73;;;;;;;;;;5030171;28;20817;-75
2021/01/26 05:20:07;;;;;;;12.37;7.10;;;;;;;;;;5025376;28;20487;-75
2021/01/26 05:22:51;;;;;;;11.03;7.67;;;;;;;;;;5033498;28;20411;-74
2021/01/26 05:25:19;;;;;;;9.10;5.67;;;;;;;;;;5032910;28;20469;-75
2021/01/26 05:27:48;;;;;;;11.70;6.87;;;;;;;;;;5031153;28;20425;-75
2021/01/26 05:30:24;;;;;;;10.00;6.83;;;;;;;;;;5013851;28;20411;-74
2021/01/26 05:32:50;;;;;;;11.37;6.97;;;;;;;;;;5019011;28;20519;-74
2021/01/26 05:35:17;;;;;;;10.67;7.07;;;;;;;;;;5033288;28;20430;-74
2021/01/26 05:37:46;;;;;;;13.70;7.83;;;;;;;;;;5028126;28;20782;-75
2021/01/26 05:40:12;;;;;;;11.70;7.60;;;;;;;;;;5013306;28;20494;-74
2021/01/26 05:42:39;;;;;;;14.80;7.40;;;;;;;;;;5016134;28;20423;-74
2021/01/26 05:45:16;;;;;;;12.07;7.70;;;;;;;;;;5013304;28;20424;-74
2021/01/26 05:47:42;;;;;;;12.30;8.23;;;;;;;;;;5016318;28;20432;-74
2021/01/26 05:50:28;;;;;;;9.30;5.67;;;;;;;;;;5033003;28;20398;-74
2021/01/26 05:53:03;;;;;;;14.97;7.20;;;;;;;;;;5031794;28;20516;-74
2021/01/26 05:55:29;;;;;;;12.00;6.70;;;;;;;;;;5033086;28;20424;-74
2021/01/26 05:57:55;;;;;;;9.83;6.40;;;;;;;;;;5030538;28;20506;-75
2021/01/26 06:00:25;;;;;;;11.37;6.90;;;;;;;;;;5032113;28;20956;-72
2021/01/26 06:03:09;;;;;;;7.43;5.70;;;;;;;;;;5030549;28;20448;-73
2021/01/26 06:05:35;;;;;;;14.17;8.13;;;;;;;;;;5031944;28;20813;-74
2021/01/26 06:08:10;;;;;;;11.23;7.23;;;;;;;;;;5030976;28;20429;-74
2021/01/26 06:10:36;;;;;;;12.20;7.70;;;;;;;;;;5032460;28;20771;-70
2021/01/26 06:13:03;;;;;;;11.75;7.13;;;;;;;;;;5029638;28;20441;-70
2021/01/26 06:15:34;;;;;;;10.30;6.83;;;;;;;;;;5031217;28;20273;-71
2021/01/26 06:18:09;;;;;;;7.77;6.10;;;;;;;;;;5027630;28;20423;-71
2021/01/26 06:20:36;;;;;;;11.60;6.57;;;;;;;;;;5029936;28;20441;-71
2021/01/26 06:23:11;;;;;;;10.67;6.77;;;;;;;;;;5031052;28;20931;-76
2021/01/26 06:25:38;;;;;;;9.53;5.80;;;;;;;;;;5032508;28;20468;-71
2021/01/26 06:28:19;;;;;;;9.00;6.00;;;;;;;;;;5029205;28;20432;-71
2021/01/26 06:31:04;;;;;;;9.10;6.33;;;;;;;;;;5019869;28;20418;-72
2021/01/26 06:33:49;;;;;;;11.57;5.63;;;;;;;;;;5016651;28;20438;-76
2021/01/26 06:36:23;;;;;;;8.50;5.90;;;;;;;;;;5026508;28;20469;-71
2021/01/26 06:39:06;;;;;;;8.47;5.60;;;;;;;;;;5031263;28;20425;-71
2021/01/26 06:41:51;;;;;;;13.40;6.30;;;;;;;;;;5012850;28;20426;-71
2021/01/26 06:44:32;;;;;;;10.17;6.60;;;;;;;;;;5030280;28;20420;-73
2021/01/26 06:47:08;;;;;;;9.00;6.00;;;;;;;;;;5032170;28;20444;-72
2021/01/26 06:49:47;;;;;;;6.97;4.67;;;;;;;;;;5031656;28;20479;-74
2021/01/26 06:52:16;;;;;;;10.93;5.17;;;;;;;;;;5032143;28;20453;-73
2021/01/26 06:54:51;;;;;;;7.27;4.80;;;;;;;;;;5031494;28;20520;-77
2021/01/26 06:57:37;;;;;;;9.20;5.47;;;;;;;;;;5031242;28;20941;-73
2021/01/26 07:00:09;;;;;;;7.83;5.23;;;;;;;;;;5017474;28;20461;-73
2021/01/26 07:03:00;;;;;;;7.43;4.70;;;;;;;;;;5025717;28;20428;-76
2021/01/26 07:05:32;;;;;;;7.83;4.67;;;;;;;;;;5030727;28;20530;-70
2021/01/26 07:07:58;;;;;;;5.10;3.90;;;;;;;;;;5031952;28;20992;-71
2021/01/26 07:10:28;;;;;;;7.93;4.50;;;;;;;;;;5029718;28;20463;-73
2021/01/26 07:12:57;;;;;;;4.97;4.20;;;;;;;;;;5031033;28;20548;-72
2021/01/26 07:15:41;;;;;;;7.33;5.10;;;;;;;;;;5029888;28;20451;-73
2021/01/26 07:18:30;;;;;;;7.38;5.00;;;;;;;;;;5012332;28;20478;-71
2021/01/26 07:20:59;;;;;;;6.97;4.90;;;;;;;;;;5015008;28;20169;-75
2021/01/26 07:23:42;;;;;;;8.27;5.10;;;;;;;;;;5033368;28;20439;-76
2021/01/26 07:26:11;;;;;;;6.93;5.40;;;;;;;;;;5035497;28;20203;-76
2021/01/26 07:28:52;;;;;;;6.87;4.67;;;;;;;;;;5034726;28;20421;-76
2021/01/26 07:31:31;;;;;;;4.13;3.40;;;;;;;;;;5035813;28;20909;-76
2021/01/26 07:34:23;;;;;;;7.03;3.53;;;;;;;;;;5020720;28;20493;-75
2021/01/26 07:36:55;;;;;;;7.00;4.23;;;;;;;;;;5020599;28;20838;-72
2021/01/26 07:39:33;;;;;;;4.30;3.90;;;;;;;;;;5036263;28;20412;-72
2021/01/26 07:42:08;;;;;;;7.20;4.43;;;;;;;;;;5036950;28;20474;-73
2021/01/26 07:44:39;;;;;;;6.20;3.77;;;;;;;;;;5032121;28;20435;-70
2021/01/26 07:47:22;;;;;;;5.63;3.90;;;;;;;;;;5026296;28;20506;-73
2021/01/26 07:49:51;;;;;;;9.53;3.23;;;;;;;;;;5049657;28;20486;-74
2021/01/26 07:52:18;;;;;;;4.07;3.00;;;;;;;;;;5041206;28;20990;-74
2021/01/26 07:54:47;;;;;;;5.17;3.70;;;;;;;;;;5043972;28;20429;-74
2021/01/26 07:57:14;;;;;;;10.33;4.70;;;;;;;;;;5034129;28;20476;-72
2021/01/26 07:59:49;;;;;;;5.20;3.37;;;;;;;;;;5037714;28;20485;-72
2021/01/26 08:02:22;;;;;;;8.77;4.70;;;;;;;;;;5034771;28;20455;-71
2021/01/26 08:04:48;;;;;;;6.33;3.83;;;;;;;;;;5032873;28;20455;-74
2021/01/26 08:07:23;;;;;;;8.87;5.30;;;;;;;;;;5034517;28;20410;-74
2021/01/26 08:09:51;;;;;;;9.23;4.53;;;;;;;;;;5033747;28;20512;-74
2021/01/26 08:14:55;;;;;;;11.93;4.50;;;;;;;;;;5031034;28;20561;-75
2021/01/26 08:17:30;;;;;;;6.10;3.63;;;;;;;;;;5027189;28;20417;-77
2021/01/26 08:20:02;;;;;;;6.23;3.30;;;;;;;;;;5030751;28;20421;-77
2021/01/26 08:22:31;;;;;;;6.40;4.00;;;;;;;;;;5036215;28;20409;-76
2021/01/26 08:24:59;;;;;;;6.70;4.40;;;;;;;;;;5037438;28;20524;-77
2021/01/26 08:27:28;;;;;;;6.23;3.80;;;;;;;;;;5037580;28;20489;-77
2021/01/26 08:29:59;;;;;;;6.67;4.60;;;;;;;;;;5034419;28;20447;-77
2021/01/26 08:32:41;;;;;;;6.70;5.17;;;;;;;;;;5035759;28;20532;-76
2021/01/26 08:35:07;;;;;;;6.73;3.90;;;;;;;;;;5033565;28;20470;-77
2021/01/26 08:37:42;;;;;;;10.67;5.50;;;;;;;;;;5034907;28;20403;-76
2021/01/26 08:40:10;;;;;;;9.00;4.20;;;;;;;;;;5033918;28;20418;-76
2021/01/26 08:42:42;;;;;;;9.47;4.63;;;;;;;;;;5033255;28;20425;-76
2021/01/26 08:45:08;;;;;;;6.50;3.67;;;;;;;;;;5011564;28;20442;-77
2021/01/26 08:47:43;;;;;;;7.10;4.57;;;;;;;;;;5013342;28;20453;-77
2021/01/26 08:50:14;;;;;;;8.90;5.00;;;;;;;;;;5027283;28;20963;-76
2021/01/26 08:52:40;;;;;;;7.40;5.00;;;;;;;;;;5033020;28;20446;-75
2021/01/26 08:55:06;;;;;;;15.23;4.90;;;;;;;;;;5032452;28;20456;-76
2021/01/26 08:57:32;;;;;;;7.77;4.70;;;;;;;;;;5033078;28;20406;-76
2021/01/26 08:59:59;;;;;;;4.53;3.20;;;;;;;;;;5032308;28;20783;-76
2021/01/26 09:02:31;;;;;;;5.83;3.40;;;;;;;;;;5030866;28;20430;-76
2021/01/26 09:04:57;;;;;;;6.83;4.33;;;;;;;;;;5028395;28;20529;-76
2021/01/26 09:07:53;;;;;;;8.70;4.80;;;;;;;;;;5031549;28;20437;-76
2021/01/26 09:10:33;;;;;;;7.57;4.47;;;;;;;;;;5023466;28;20508;-76
2021/01/26 09:13:11;;;;;;;5.93;3.60;;;;;;;;;;5033181;28;20444;-76
2021/01/26 09:15:38;;;;;;;5.93;4.13;;;;;;;;;;5021769;28;20443;-76
2021/01/26 09:18:04;;;;;;;9.57;5.27;;;;;;;;;;5032830;28;20453;-76
2021/01/26 09:20:32;;;;;;;7.63;5.50;;;;;;;;;;5032967;28;20433;-75
2021/01/26 09:22:59;;;;;;;6.97;4.90;;;;;;;;;;5033669;28;20964;-75
2021/01/26 09:25:29;;;;;;;6.03;3.83;;;;;;;;;;5031328;28;20545;-77
2021/01/26 09:28:06;;;;;;;6.50;4.57;;;;;;;;;;5032149;28;20433;-75
2021/01/26 09:30:32;;;;;;;8.70;5.03;;;;;;;;;;5031537;28;20425;-75
2021/01/26 09:33:00;;;;;;;8.80;3.80;;;;;;;;;;5032971;28;20448;-75
2021/01/26 09:35:26;;;;;;;7.53;5.43;;;;;;;;;;5030622;28;20549;-76
2021/01/26 09:38:18;;;;;;;6.70;3.70;;;;;;;;;;5032047;28;20548;-75
2021/01/26 09:41:03;;;;;;;5.97;4.40;;;;;;;;;;5015968;28;20874;-75
2021/01/26 09:43:30;;;;;;;10.63;5.23;;;;;;;;;;5031921;28;20412;-75
2021/01/26 09:45:58;;;;;;;8.50;5.60;;;;;;;;;;5031485;28;20975;-76
2021/01/26 09:48:27;;;;;;;6.70;4.43;;;;;;;;;;5032379;28;20407;-76
2021/01/26 09:50:53;;;;;;;5.43;4.20;;;;;;;;;;5031240;28;20794;-75
2021/01/26 09:53:21;;;;;;;7.70;4.60;;;;;;;;;;5031520;28;20444;-76
2021/01/26 09:55:51;;;;;;;7.93;5.30;;;;;;;;;;5031297;28;20456;-76
2021/01/26 09:58:17;;;;;;;13.53;5.67;;;;;;;;;;5032327;28;20414;-76
2021/01/26 10:00:43;;;;;;;11.20;4.90;;;;;;;;;;5031303;28;20798;-75
2021/01/26 10:03:09;;;;;;;10.30;4.83;;;;;;;;;;5031939;28;20422;-76
2021/01/26 10:05:35;;;;;;;8.47;5.00;;;;;;;;;;5030953;28;20537;-77
2021/01/26 10:08:04;;;;;;;6.80;3.93;;;;;;;;;;5032023;28;20405;-76
2021/01/26 10:10:30;;;;;;;9.93;3.93;;;;;;;;;;5031302;28;20495;-76
2021/01/26 10:12:56;;;;;;;8.37;4.10;;;;;;;;;;5032267;28;20454;-75
2021/01/26 10:15:30;;;;;;;7.03;4.47;;;;;;;;;;5031534;28;20453;-76
2021/01/26 10:18:12;;;;;;;9.53;4.97;;;;;;;;;;5031316;28;20449;-76
2021/01/26 10:20:44;;;;;;;4.93;4.13;;;;;;;;;;5031208;28;20536;-76
2021/01/26 10:23:33;;;;;;;4.03;3.40;;;;;;;;;;5029787;28;20413;-77
2021/01/26 10:26:07;;;;;;;6.43;4.20;;;;;;;;;;5017926;28;20474;-76
2021/01/26 10:28:33;;;;;;;6.20;4.10;;;;;;;;;;5027498;28;20424;-76
2021/01/26 10:31:02;;;;;;;5.90;4.13;;;;;;;;;;5030484;28;20426;-76
2021/01/26 10:33:47;;;;;;;7.53;4.00;;;;;;;;;;5030551;28;20923;-77
2021/01/26 10:36:20;;;;;;;6.27;4.63;;;;;;;;;;5022466;28;20453;-75
2021/01/26 10:38:47;;;;;;;6.40;4.10;;;;;;;;;;5032383;28;20417;-75
2021/01/26 10:41:19;;;;;;;6.00;3.60;;;;;;;;;;5031058;28;20453;-75
2021/01/26 10:43:45;;;;;;;8.30;4.03;;;;;;;;;;5032608;28;20386;-75
2021/01/26 10:46:12;;;;;;;12.43;4.60;;;;;;;;;;5031488;28;20431;-75
2021/01/26 10:48:42;;;;;;;5.57;3.43;;;;;;;;;;5031901;28;20482;-75
2021/01/26 10:51:08;;;;;;;5.30;3.63;;;;;;;;;;5031254;28;20436;-75
2021/01/26 10:53:34;;;;;;;6.70;4.30;;;;;;;;;;5033128;28;20417;-75
2021/01/26 10:56:01;;;;;;;9.47;4.23;;;;;;;;;;5034820;28;20453;-75
2021/01/26 10:58:27;;;;;;;5.97;3.60;;;;;;;;;;5035947;28;20477;-75
2021/01/26 11:00:53;;;;;;;5.67;3.70;;;;;;;;;;5034501;28;20425;-75
2021/01/26 11:03:19;;;;;;;4.97;3.70;;;;;;;;;;5034888;28;20455;-75
2021/01/26 11:05:45;;;;;;;5.63;4.23;;;;;;;;;;5034591;28;20523;-74
2021/01/26 11:08:11;;;;;;;7.60;4.20;;;;;;;;;;5034709;28;20425;-75
2021/01/26 11:10:37;;;;;;;6.60;3.03;;;;;;;;;;5034411;28;20492;-75
2021/01/26 11:13:04;;;;;;;7.37;3.53;;;;;;;;;;5034247;28;20464;-75
2021/01/26 11:15:30;;;;;;;6.00;3.33;;;;;;;;;;5034918;28;20497;-76
2021/01/26 11:17:56;;;;;;;6.93;3.60;;;;;;;;;;5036835;28;20836;-75
2021/01/26 11:20:22;;;;;;;7.03;3.77;;;;;;;;;;5035045;28;20418;-77
2021/01/26 11:22:48;;;;;;;7.93;3.47;;;;;;;;;;5020010;28;20945;-75
2021/01/26 11:25:16;;;;;;;4.17;2.83;;;;;;;;;;5056096;22;20548;-67
2021/01/26 11:27:42;;;;;;;4.77;2.83;;;;;;;;;;4975958;28;20421;-68
2021/01/26 11:30:09;;;;;;;7.33;3.17;;;;;;;;;;4977104;28;20420;-67
2021/01/26 11:32:35;;;;;;;5.57;2.80;;;;;;;;;;4992357;28;20478;-68
2021/01/26 11:35:03;;;;;;;5.07;3.17;;;;;;;;;;4995349;28;20902;-68
2021/01/26 11:37:29;;;;;;;5.63;2.83;;;;;;;;;;4957893;28;20436;-67
2021/01/26 11:39:55;;;;;;;4.17;2.67;;;;;;;;;;4970323;28;20429;-68
2021/01/26 11:42:21;;;;;;;5.60;3.60;;;;;;;;;;4956987;28;20890;-69
2021/01/26 11:44:47;;;;;;;3.07;2.57;;;;;;;;;;4961930;28;20444;-68
2021/01/26 11:47:13;;;;;;;3.90;2.53;;;;;;;;;;4955367;28;21000;-68
2021/01/26 11:49:39;;;;;;;4.13;2.73;;;;;;;;;;4956421;28;20445;-69
2021/01/26 11:52:05;;;;;;;4.40;3.30;;;;;;;;;;4965707;28;20462;-69
2021/01/26 11:54:31;;;;;;;3.60;2.83;;;;;;;;;;4975573;28;20404;-69
2021/01/26 11:56:57;;;;;;;6.60;3.10;;;;;;;;;;4966264;28;20472;-69
2021/01/26 11:59:23;;;;;;;5.53;3.53;;;;;;;;;;4975139;28;20456;-69
2021/01/26 12:01:52;;;;;;;4.67;2.70;;;;;;;;;;4966967;28;20429;-68
2021/01/26 12:04:18;;;;;;;3.90;2.67;;;;;;;;;;4982473;28;20431;-69
2021/01/26 12:06:44;;;;;;;3.33;2.67;;;;;;;;;;4956977;28;20824;-69
2021/01/26 12:09:10;;;;;;;4.40;2.63;;;;;;;;;;4975052;28;20420;-68
2021/01/26 12:11:36;;;;;;;3.50;2.30;;;;;;;;;;4967069;28;20458;-68
2021/01/26 12:14:03;;;;;;;3.03;2.40;;;;;;;;;;4956185;29;20424;-70
2021/01/26 12:16:29;;;;;;;4.90;2.63;;;;;;;;;;4955893;28;20815;-69
2021/01/26 12:18:55;;;;;;;5.47;3.00;;;;;;;;;;4975490;28;21239;-68
2021/01/26 12:21:21;;;;;;;4.90;3.40;;;;;;;;;;4959144;28;22723;-71
2021/01/26 12:23:50;;;;;;;4.33;2.03;;;;;;;;;;4947790;28;20437;-70
2021/01/26 12:26:16;;;;;;;3.57;2.23;;;;;;;;;;4954406;28;20603;-69
2021/01/26 12:28:42;;;;;;;5.10;3.17;;;;;;;;;;4955673;29;20854;-69
2021/01/26 12:31:08;;;;;;;4.37;2.60;;;;;;;;;;4956025;28;20486;-69
2021/01/26 12:33:34;;;;;;;2.80;2.10;;;;;;;;;;4944635;28;20436;-68
2021/01/26 12:36:01;;;;;;;8.80;3.17;;;;;;;;;;4974758;28;20893;-69
2021/01/26 12:38:27;;;;;;;4.93;2.73;;;;;;;;;;4963967;28;20454;-68
2021/01/26 12:40:53;;;;;;;6.10;2.50;;;;;;;;;;4974356;28;20424;-68
2021/01/26 12:43:19;;;;;;;5.97;2.40;;;;;;;;;;4954615;28;20430;-68
2021/01/26 12:45:45;;;;;;;5.97;2.00;;;;;;;;;;4953910;28;20467;-69
2021/01/26 12:48:11;;;;;;;3.80;2.50;;;;;;;;;;4956812;28;20431;-69
2021/01/26 12:50:38;;;;;;;3.40;2.23;;;;;;;;;;4956957;28;20409;-70
2021/01/26 12:53:04;;;;;;;6.07;2.43;;;;;;;;;;4959870;28;20853;-69
2021/01/26 12:55:31;;;;;;;4.50;2.77;;;;;;;;;;4967107;28;20604;-69
2021/01/26 12:57:57;;;;;;;4.77;2.23;;;;;;;;;;4953957;28;20818;-69
2021/01/26 13:00:24;;;;;;;4.40;2.40;;;;;;;;;;4955250;28;20472;-70
2021/01/26 13:02:50;;;;;;;3.30;2.40;;;;;;;;;;4954331;29;20444;-69
2021/01/26 13:05:17;;;;;;;2.10;1.87;;;;;;;;;;4972916;28;20421;-69
2021/01/26 13:07:43;;;;;;;3.60;3.20;;;;;;;;;;4958260;28;20433;-69
2021/01/26 13:10:11;;;;;;;5.27;2.27;;;;;;;;;;4969846;28;20808;-69
2021/01/26 13:12:38;;;;;;;5.50;2.73;;;;;;;;;;4967859;28;20543;-69
2021/01/26 13:15:08;;;;;;;3.50;2.57;;;;;;;;;;4959879;28;20424;-70
2021/01/26 13:17:34;;;;;;;3.43;1.90;;;;;;;;;;4966709;28;20425;-69
2021/01/26 13:20:00;;;;;;;4.07;3.00;;;;;;;;;;4954789;29;20963;-69
2021/01/26 13:22:27;;;;;;;5.07;3.10;;;;;;;;;;4953925;29;20445;-70
2021/01/26 13:24:53;;;;;;;2.97;2.00;;;;;;;;;;4969646;28;20450;-69
2021/01/26 13:27:19;;;;;;;3.63;2.40;;;;;;;;;;4959979;28;20510;-69
2021/01/26 13:29:45;;;;;;;3.63;2.60;;;;;;;;;;4966872;28;20452;-69
2021/01/26 13:32:12;;;;;;;5.93;2.50;;;;;;;;;;4964594;28;20466;-69
2021/01/26 13:34:39;;;;;;;9.20;3.30;;;;;;;;;;4954558;29;20422;-69
2021/01/26 13:37:06;;;;;;;7.20;3.20;;;;;;;;;;4953863;28;20447;-69
2021/01/26 13:39:32;;;;;;;4.87;3.20;;;;;;;;;;4958613;28;20547;-69
2021/01/26 13:41:58;;;;;;;7.00;3.10;;;;;;;;;;4967735;28;20491;-69
2021/01/26 13:44:24;;;;;;;4.10;2.87;;;;;;;;;;4972143;28;20425;-70
2021/01/26 13:46:51;;;;;;;4.23;2.50;;;;;;;;;;4969437;28;20497;-69
2021/01/26 13:49:16;;;;;;;2.77;2.53;;;;;;;;;;4970547;28;20417;-69
2021/01/26 13:51:42;;;;;;;3.93;2.57;;;;;;;;;;4969762;28;20468;-69
2021/01/26 13:54:09;;;;;;;4.40;2.60;;;;;;;;;;4954864;28;20919;-69
2021/01/26 13:56:35;;;;;;;4.33;2.83;;;;;;;;;;4952406;28;21021;-70
2021/01/26 13:59:01;;;;;;;5.47;2.40;;;;;;;;;;4952211;28;20559;-69
2021/01/26 14:01:27;;;;;;;4.07;2.77;;;;;;;;;;4945436;28;20414;-70
2021/01/26 14:03:53;;;;;;;7.10;3.20;;;;;;;;;;4962799;28;20437;-69
2021/01/26 14:06:19;;;;;;;4.70;2.83;;;;;;;;;;4952223;28;20439;-70
2021/01/26 14:08:45;;;;;;;3.70;2.77;;;;;;;;;;4952844;29;20928;-70
2021/01/26 14:11:11;;;;;;;5.00;1.90;;;;;;;;;;4953900;28;20411;-70
2021/01/26 14:13:38;;;;;;;4.43;2.30;;;;;;;;;;4965079;28;20432;-69
2021/01/26 14:16:04;;;;;;;4.60;2.33;;;;;;;;;;4966102;28;20888;-69
2021/01/26 14:18:30;;;;;;;10.23;3.33;;;;;;;;;;4958303;28;20510;-70
2021/01/26 14:20:56;;;;;;;4.90;2.20;;;;;;;;;;4973517;28;20421;-70
2021/01/26 14:23:23;;;;;;;3.50;2.37;;;;;;;;;;4966041;28;20996;-70
2021/01/26 14:25:49;;;;;;;7.77;2.37;;;;;;;;;;4972880;28;20454;-69
2021/01/26 14:28:15;;;;;;;4.57;2.37;;;;;;;;;;4962378;28;20446;-70
2021/01/26 14:30:41;;;;;;;3.20;2.27;;;;;;;;;;4976422;28;20451;-69
2021/01/26 14:33:07;;;;;;;3.73;2.60;;;;;;;;;;4969809;28;20473;-69
2021/01/26 14:35:34;;;;;;;4.83;3.10;;;;;;;;;;4957146;28;20464;-71
2021/01/26 14:38:01;;;;;;;6.80;2.50;;;;;;;;;;4952213;28;20430;-69
2021/01/26 14:40:27;;;;;;;6.97;3.37;;;;;;;;;;4962845;28;20514;-69
2021/01/26 14:42:53;;;;;;;7.23;2.70;;;;;;;;;;4971639;28;20437;-69
2021/01/26 14:45:20;;;;;;;5.10;2.43;;;;;;;;;;4968179;28;20432;-69
2021/01/26 14:47:46;;;;;;;6.30;2.73;;;;;;;;;;4969052;28;20476;-70
2021/01/26 14:50:14;;;;;;;3.00;2.30;;;;;;;;;;4957234;29;20405;-69
2021/01/26 14:52:40;;;;;;;7.20;2.83;;;;;;;;;;4975965;28;20523;-69
2021/01/26 14:55:06;;;;;;;6.73;2.50;;;;;;;;;;4956295;28;20548;-69
2021/01/26 14:57:32;;;;;;;2.80;1.93;;;;;;;;;;4986731;28;20854;-69